createdAt,value
2019-02-22T00:01:20.447Z,32.13
2019-02-22T00:03:49.217Z,33.10
2019-02-22T00:06:18.299Z,31.60
2019-02-22T00:08:47.063Z,31.73
2019-02-22T00:11:15.769Z,32.13
2019-02-22T00:13:44.415Z,32.07
2019-02-22T00:16:13.158Z,31.10
2019-02-22T00:18:42.146Z,32.53
2019-02-22T00:21:10.775Z,31.70
2019-02-22T00:23:39.477Z,32.50
2019-02-22T00:26:08.201Z,31.57
2019-02-22T00:28:36.929Z,31.83
2019-02-22T00:31:05.781Z,32.90
2019-02-22T00:33:34.337Z,30.93
2019-02-22T00:36:02.965Z,29.93
2019-02-22T00:38:31.800Z,27.87
2019-02-22T00:41:00.425Z,27.17
2019-02-22T00:43:29.141Z,25.70
2019-02-22T00:45:57.853Z,25.17
2019-02-22T00:48:26.577Z,25.60
2019-02-22T00:50:55.578Z,25.43
2019-02-22T00:53:24.244Z,24.17
2019-02-22T00:55:58.953Z,24.10
2019-02-22T00:58:23.317Z,22.57
2019-02-22T01:00:52.753Z,21.97
2019-02-22T01:03:21.395Z,20.93
2019-02-22T01:05:50.338Z,21.83
2019-02-22T01:08:19.289Z,19.50
2019-02-22T01:10:47.920Z,19.63
2019-02-22T01:13:19.452Z,21.20
2019-02-22T01:15:48.066Z,20.83
2019-02-22T01:18:16.624Z,20.50
2019-02-22T01:20:54.037Z,18.07
2019-02-22T01:23:15.651Z,17.53
2019-02-22T01:25:44.224Z,18.50
2019-02-22T01:28:12.934Z,17.50
2019-02-22T01:30:41.861Z,16.83
2019-02-22T01:33:10.508Z,16.37
2019-02-22T01:35:40.670Z,15.07
2019-02-22T01:38:09.423Z,13.83
2019-02-22T01:40:43.817Z,14.13
2019-02-22T01:43:10.740Z,13.47
2019-02-22T01:45:39.438Z,13.63
2019-02-22T01:48:08.148Z,13.87
2019-02-22T01:50:36.774Z,12.97
2019-02-22T01:53:05.461Z,14.37
2019-02-22T01:55:34.363Z,13.23
2019-02-22T01:58:03.386Z,12.97
2019-02-22T02:00:32.335Z,11.27
2019-02-22T02:03:00.981Z,12.13
2019-02-22T02:05:29.542Z,11.67
2019-02-22T02:07:58.282Z,11.00
2019-02-22T02:10:26.927Z,11.70
2019-02-22T02:12:55.562Z,10.70
2019-02-22T02:15:24.570Z,10.10
2019-02-22T02:17:53.212Z,10.03
2019-02-22T02:20:22.270Z,9.83
2019-02-22T02:22:51.622Z,10.00
2019-02-22T02:25:20.259Z,10.20
2019-02-22T02:27:49.089Z,9.30
2019-02-22T02:30:18.204Z,9.83
2019-02-22T02:32:46.848Z,10.07
2019-02-22T02:35:16.273Z,9.33
2019-02-22T02:37:50.680Z,10.80
2019-02-22T02:40:19.406Z,9.13
2019-02-22T02:42:48.202Z,9.93
2019-02-22T02:45:17.095Z,9.63
2019-02-22T02:47:45.739Z,10.70
2019-02-22T02:50:17.972Z,10.87
2019-02-22T02:52:46.696Z,10.40
2019-02-22T02:55:32.505Z,10.20
2019-02-22T02:58:01.454Z,10.40
2019-02-22T03:00:30.582Z,10.97
2019-02-22T03:03:02.723Z,11.83
2019-02-22T03:05:49.418Z,10.73
2019-02-22T03:08:18.191Z,11.80
2019-02-22T03:10:47.243Z,12.60
2019-02-22T03:13:15.932Z,12.23
2019-02-22T03:15:44.560Z,11.57
2019-02-22T03:18:13.276Z,12.47
2019-02-22T03:20:41.953Z,12.83
2019-02-22T03:23:10.591Z,12.70
2019-02-22T03:25:39.311Z,11.93
2019-02-22T03:28:09.855Z,11.93
2019-02-22T03:30:38.215Z,12.13
2019-02-22T03:33:06.847Z,13.03
2019-02-22T03:35:35.611Z,13.03
2019-02-22T03:38:05.972Z,11.67
2019-02-22T03:40:34.599Z,13.03
2019-02-22T03:43:03.334Z,12.77
2019-02-22T03:45:31.982Z,12.70
2019-02-22T03:48:00.607Z,12.17
2019-02-22T03:50:29.351Z,12.93
2019-02-22T03:53:08.443Z,12.23
2019-02-22T03:55:37.189Z,13.00
2019-02-22T03:58:05.901Z,13.10
2019-02-22T04:00:34.764Z,13.60
2019-02-22T04:03:03.509Z,13.33
2019-02-22T04:05:32.277Z,12.87
2019-02-22T04:08:00.989Z,12.67
2019-02-22T04:10:29.791Z,12.63
2019-02-22T04:12:58.500Z,13.20
2019-02-22T04:15:27.204Z,12.90
2019-02-22T04:17:56.319Z,13.67
2019-02-22T04:20:25.117Z,14.00
2019-02-22T04:22:53.762Z,14.63
2019-02-22T04:25:24.655Z,14.60
2019-02-22T04:27:53.288Z,13.30
2019-02-22T04:30:21.925Z,13.43
2019-02-22T04:32:50.583Z,14.03
2019-02-22T04:35:19.430Z,14.10
2019-02-22T04:37:47.959Z,13.90
2019-02-22T04:40:16.717Z,14.37
2019-02-22T04:42:45.432Z,14.40
2019-02-22T04:45:14.149Z,14.03
2019-02-22T04:47:42.829Z,14.43
2019-02-22T04:50:11.638Z,13.73
2019-02-22T04:52:40.361Z,13.57
2019-02-22T04:55:09.117Z,13.63
2019-02-22T04:57:37.841Z,13.83
2019-02-22T05:00:07.169Z,14.80
2019-02-22T05:02:37.406Z,13.70
2019-02-22T05:05:06.722Z,13.33
2019-02-22T05:07:35.429Z,13.63
2019-02-22T05:10:04.787Z,13.53
2019-02-22T05:12:33.695Z,14.63
2019-02-22T05:15:11.866Z,13.23
2019-02-22T05:17:35.732Z,13.77
2019-02-22T05:20:08.359Z,14.83
2019-02-22T05:22:36.990Z,14.17
2019-02-22T05:25:06.848Z,13.77
2019-02-22T05:27:35.823Z,14.10
2019-02-22T05:30:05.615Z,14.27
2019-02-22T05:32:34.365Z,13.13
2019-02-22T05:35:03.280Z,13.90
2019-02-22T05:37:32.045Z,13.50
2019-02-22T05:40:03.858Z,13.23
2019-02-22T05:42:34.567Z,13.67
2019-02-22T05:45:03.266Z,13.33
2019-02-22T05:47:31.958Z,14.17
2019-02-22T05:50:00.760Z,14.90
2019-02-22T05:52:32.466Z,14.23
2019-02-22T05:55:02.844Z,15.93
2019-02-22T05:57:31.716Z,15.23
2019-02-22T06:00:00.366Z,15.00
2019-02-22T06:02:29.031Z,14.50
2019-02-22T06:04:57.660Z,14.00
2019-02-22T06:07:26.310Z,14.97
2019-02-22T06:09:54.924Z,15.33
2019-02-22T06:12:33.844Z,15.13
2019-02-22T06:14:55.349Z,15.23
2019-02-22T06:17:24.059Z,15.70
2019-02-22T06:19:53.288Z,15.50
2019-02-22T06:22:29.474Z,15.33
2019-02-22T06:24:55.326Z,15.37
2019-02-22T06:27:23.974Z,14.97
2019-02-22T06:29:53.018Z,14.90
2019-02-22T06:32:21.680Z,16.07
2019-02-22T06:34:50.387Z,15.23
2019-02-22T06:37:20.686Z,15.67
2019-02-22T06:39:49.284Z,15.60
2019-02-22T06:42:18.106Z,15.13
2019-02-22T06:44:47.039Z,14.53
2019-02-22T06:47:16.772Z,14.80
2019-02-22T06:49:45.694Z,15.27
2019-02-22T06:52:14.333Z,14.90
2019-02-22T06:54:49.101Z,15.50
2019-02-22T06:57:17.737Z,14.50
2019-02-22T06:59:46.293Z,15.83
2019-02-22T07:02:15.035Z,15.83
2019-02-22T07:04:43.601Z,15.13
2019-02-22T07:07:12.239Z,14.93
2019-02-22T07:09:40.859Z,16.40
2019-02-22T07:12:26.239Z,15.77
2019-02-22T07:14:55.334Z,14.57
2019-02-22T07:17:23.932Z,16.83
2019-02-22T07:19:52.584Z,15.63
2019-02-22T07:22:21.252Z,15.87
2019-02-22T07:24:49.910Z,15.57
2019-02-22T07:27:19.578Z,14.60
2019-02-22T07:29:48.765Z,14.43
2019-02-22T07:32:19.467Z,15.53
2019-02-22T07:34:49.754Z,15.37
2019-02-22T07:37:18.776Z,14.70
2019-02-22T07:39:49.594Z,14.73
2019-02-22T07:42:18.300Z,14.30
2019-02-22T07:44:47.077Z,14.77
2019-02-22T07:47:15.785Z,14.70
2019-02-22T07:49:44.437Z,14.80
2019-02-22T07:52:13.241Z,15.30
2019-02-22T07:54:41.937Z,14.93
2019-02-22T07:57:10.715Z,15.80
2019-02-22T07:59:39.600Z,15.03
2019-02-22T08:02:08.309Z,15.53
2019-02-22T08:04:37.306Z,15.07
2019-02-22T08:07:06.193Z,17.17
2019-02-22T08:09:36.487Z,15.53
2019-02-22T08:12:12.989Z,16.13
2019-02-22T08:14:50.457Z,15.70
2019-02-22T08:17:19.333Z,15.13
2019-02-22T08:19:53.224Z,15.17
2019-02-22T08:22:22.095Z,14.90
2019-02-22T08:24:51.034Z,15.93
2019-02-22T08:27:19.819Z,15.70
2019-02-22T08:29:48.536Z,15.17
2019-02-22T08:32:17.377Z,15.27
2019-02-22T08:34:46.052Z,15.17
2019-02-22T08:37:15.035Z,15.20
2019-02-22T08:39:43.802Z,14.93
2019-02-22T08:42:12.588Z,16.03
2019-02-22T08:44:41.242Z,15.60
2019-02-22T08:47:12.381Z,16.17
2019-02-22T08:49:42.869Z,16.13
2019-02-22T08:52:12.575Z,16.13
2019-02-22T08:54:46.947Z,17.33
2019-02-22T08:57:11.837Z,17.23
2019-02-22T08:59:41.729Z,17.37
2019-02-22T09:02:10.527Z,17.30
2019-02-22T09:04:39.292Z,17.80
2019-02-22T09:07:08.135Z,17.53
2019-02-22T09:09:39.848Z,15.87
2019-02-22T09:12:08.685Z,15.40
2019-02-22T09:14:40.333Z,15.17
2019-02-22T09:17:09.177Z,14.83
2019-02-22T09:19:38.000Z,13.07
2019-02-22T09:22:09.295Z,12.40
2019-02-22T09:24:39.446Z,13.43
2019-02-22T09:27:10.227Z,12.27
2019-02-22T09:29:38.760Z,13.37
2019-02-22T09:32:07.500Z,11.87
2019-02-22T09:34:36.274Z,10.47
2019-02-22T09:37:07.783Z,10.63
2019-02-22T09:39:38.738Z,10.87
2019-02-22T09:42:07.633Z,9.53
2019-02-22T09:44:36.653Z,9.30
2019-02-22T09:47:08.143Z,10.37
2019-02-22T09:49:37.866Z,10.57
2019-02-22T09:52:15.528Z,12.00
2019-02-22T09:54:44.211Z,12.13
2019-02-22T09:57:12.937Z,11.90
2019-02-22T09:59:43.601Z,9.30
2019-02-22T10:02:12.299Z,9.50
2019-02-22T10:04:54.269Z,9.33
2019-02-22T10:07:13.666Z,8.20
2019-02-22T10:09:42.438Z,9.97
2019-02-22T10:12:11.070Z,8.47
2019-02-22T10:14:44.362Z,8.10
2019-02-22T10:17:13.034Z,9.17
2019-02-22T10:19:41.814Z,8.93
2019-02-22T10:22:10.471Z,7.50
2019-02-22T10:24:39.208Z,7.50
2019-02-22T10:27:08.355Z,9.05
2019-02-22T10:29:37.418Z,6.87
2019-02-22T10:32:06.166Z,7.03
2019-02-22T10:34:37.868Z,6.03
2019-02-22T10:37:06.984Z,6.57
2019-02-22T10:39:36.110Z,4.40
2019-02-22T10:42:05.683Z,4.80
2019-02-22T10:44:34.415Z,5.63
2019-02-22T10:47:03.190Z,4.03
2019-02-22T10:49:31.819Z,3.80
2019-02-22T10:52:00.521Z,3.73
2019-02-22T10:54:29.653Z,3.33
2019-02-22T10:57:01.315Z,4.20
2019-02-22T10:59:31.406Z,2.60
2019-02-22T11:02:02.508Z,5.30
2019-02-22T11:04:31.279Z,6.70
2019-02-22T11:07:02.687Z,4.50
2019-02-22T11:09:31.431Z,4.20
2019-02-22T11:12:01.603Z,5.97
2019-02-22T11:14:34.121Z,3.97
2019-02-22T11:17:03.569Z,3.73
2019-02-22T11:19:32.337Z,3.77
2019-02-22T11:22:01.151Z,3.40
2019-02-22T11:24:29.910Z,3.67
2019-02-22T11:26:58.559Z,3.60
2019-02-22T11:29:28.489Z,4.03
2019-02-22T11:31:57.289Z,4.27
2019-02-22T11:34:56.295Z,5.33
2019-02-22T11:36:56.269Z,5.23
2019-02-22T11:39:28.886Z,8.53
2019-02-22T11:41:57.497Z,8.50
2019-02-22T11:44:39.622Z,6.77
2019-02-22T11:47:02.296Z,6.23
2019-02-22T11:49:32.746Z,4.70
2019-02-22T11:52:01.386Z,3.90
2019-02-22T11:54:30.217Z,5.00
2019-02-22T11:56:59.121Z,5.00
2019-02-22T11:59:27.851Z,5.27
2019-02-22T12:01:56.915Z,6.93
2019-02-22T12:04:25.632Z,7.37
2019-02-22T12:06:54.351Z,7.27
2019-02-22T12:09:23.163Z,7.43
2019-02-22T12:11:52.983Z,7.13
2019-02-22T12:14:22.888Z,7.83
2019-02-22T12:16:51.617Z,6.60
2019-02-22T12:19:20.361Z,6.40
2019-02-22T12:21:49.291Z,6.17
2019-02-22T12:24:19.291Z,5.63
2019-02-22T12:26:48.285Z,5.33
2019-02-22T12:29:17.399Z,5.93
2019-02-22T12:31:52.066Z,6.60
2019-02-22T12:34:22.431Z,5.43
2019-02-22T12:36:51.356Z,4.20
2019-02-22T12:39:20.105Z,3.83
2019-02-22T12:41:50.598Z,3.93
2019-02-22T12:44:22.098Z,3.33
2019-02-22T12:46:50.756Z,3.43
2019-02-22T12:53:00.374Z,3.53
2019-02-22T12:55:29.008Z,3.97
2019-02-22T12:57:59.223Z,3.63
2019-02-22T13:00:28.160Z,3.53
2019-02-22T13:03:02.021Z,3.33
2019-02-22T13:05:29.525Z,4.63
2019-02-22T13:07:58.283Z,3.83
2019-02-22T13:10:28.447Z,3.73
2019-02-22T13:13:01.681Z,4.00
2019-02-22T13:15:30.343Z,4.40
2019-02-22T13:17:59.046Z,4.00
2019-02-22T13:20:28.726Z,4.07
2019-02-22T13:22:57.500Z,3.87
2019-02-22T13:25:32.816Z,4.60
2019-02-22T13:28:04.703Z,4.27
2019-02-22T13:30:33.622Z,4.80
2019-02-22T13:33:05.583Z,4.97
2019-02-22T13:35:35.927Z,6.70
2019-02-22T13:38:04.722Z,6.87
2019-02-22T13:40:33.457Z,7.57
2019-02-22T13:43:09.512Z,8.20
2019-02-22T13:45:38.394Z,8.53
2019-02-22T13:48:07.148Z,9.20
2019-02-22T13:50:35.910Z,8.43
2019-02-22T13:53:05.562Z,7.83
2019-02-22T13:55:34.270Z,6.97
2019-02-22T13:58:04.298Z,6.57
2019-02-22T14:00:35.683Z,6.40
2019-02-22T14:03:05.549Z,5.43
2019-02-22T14:05:34.216Z,5.87
2019-02-22T14:08:05.654Z,5.10
2019-02-22T14:10:34.296Z,3.87
2019-02-22T14:13:05.695Z,4.37
2019-02-22T14:15:38.305Z,4.37
2019-02-22T14:18:08.284Z,4.03
2019-02-22T14:20:37.379Z,4.27
2019-02-22T14:23:06.126Z,4.00
2019-02-22T14:25:34.845Z,3.97
2019-02-22T14:28:06.280Z,4.20
2019-02-22T14:30:35.072Z,3.97
2019-02-22T14:33:06.751Z,4.30
2019-02-22T14:35:39.474Z,3.97
2019-02-22T14:38:08.469Z,3.80
2019-02-22T14:40:39.760Z,3.67
2019-02-22T14:43:16.650Z,3.53
2019-02-22T14:45:49.319Z,3.83
2019-02-22T14:48:16.686Z,4.30
2019-02-22T14:50:45.405Z,3.83
2019-02-22T14:53:19.486Z,3.60
2019-02-22T14:55:46.720Z,3.50
2019-02-22T14:58:15.612Z,3.70
2019-02-22T15:00:44.362Z,3.50
2019-02-22T15:03:14.485Z,3.97
2019-02-22T15:05:44.629Z,4.57
2019-02-22T15:08:13.351Z,4.30
2019-02-22T15:10:44.777Z,4.47
2019-02-22T15:13:16.853Z,3.93
2019-02-22T15:15:45.299Z,4.77
2019-02-22T15:18:15.222Z,4.33
2019-02-22T15:20:46.163Z,4.03
2019-02-22T15:23:16.884Z,5.10
2019-02-22T15:25:49.522Z,4.90
2019-02-22T15:28:19.807Z,4.13
2019-02-22T15:30:48.463Z,4.30
2019-02-22T15:33:17.523Z,3.90
2019-02-22T15:35:46.120Z,3.77
2019-02-22T15:38:19.264Z,3.50
2019-02-22T15:40:52.810Z,3.83
2019-02-22T15:43:21.772Z,4.40
2019-02-22T15:45:52.037Z,3.93
2019-02-22T15:48:20.687Z,3.93
2019-02-22T15:50:49.321Z,4.00
2019-02-22T15:53:18.436Z,3.43
2019-02-22T15:55:47.066Z,3.80
2019-02-22T15:58:16.168Z,3.50
2019-02-22T16:00:48.490Z,4.10
2019-02-22T16:03:19.646Z,4.20
2019-02-22T16:05:54.105Z,4.17
2019-02-22T16:08:24.482Z,3.80
2019-02-22T16:10:53.198Z,4.53
2019-02-22T16:13:21.947Z,4.43
2019-02-22T16:15:50.928Z,4.27
2019-02-22T16:18:25.248Z,4.80
2019-02-22T16:20:58.253Z,5.20
2019-02-22T16:23:29.761Z,5.23
2019-02-22T16:26:01.911Z,4.80
2019-02-22T16:28:33.871Z,5.63
2019-02-22T16:31:04.932Z,5.23
2019-02-22T16:33:38.401Z,5.30
2019-02-22T16:36:08.512Z,5.00
2019-02-22T16:38:37.191Z,5.80
2019-02-22T16:41:08.429Z,4.73
2019-02-22T16:43:39.791Z,5.73
2019-02-22T16:46:16.315Z,5.63
2019-02-22T16:48:44.944Z,5.53
2019-02-22T16:51:17.331Z,6.20
2019-02-22T16:53:47.139Z,6.10
2019-02-22T16:56:16.031Z,6.90
2019-02-22T16:58:44.919Z,9.43
2019-02-22T17:01:21.767Z,7.70
2019-02-22T17:03:50.578Z,8.77
2019-02-22T17:06:19.397Z,8.83
2019-02-22T17:08:50.653Z,8.93
2019-02-22T17:11:19.619Z,8.90
2019-02-22T17:13:48.290Z,8.73
2019-02-22T17:16:22.997Z,8.73
2019-02-22T17:21:36.911Z,9.13
2019-02-22T17:24:27.122Z,9.33
2019-02-22T17:27:07.150Z,8.77
2019-02-22T17:29:38.846Z,8.60
2019-02-22T17:32:12.286Z,9.37
2019-02-22T17:34:49.821Z,8.93
2019-02-22T17:37:21.482Z,8.40
2019-02-22T17:39:53.024Z,8.43
2019-02-22T17:42:40.982Z,9.40
2019-02-22T17:45:11.178Z,9.20
2019-02-22T17:47:40.116Z,8.83
2019-02-22T17:50:12.287Z,8.47
2019-02-22T17:52:43.658Z,9.40
2019-02-22T17:55:16.542Z,9.63
2019-02-22T17:57:45.247Z,9.43
2019-02-22T18:00:20.344Z,9.73
2019-02-22T18:03:03.009Z,10.87
2019-02-22T18:05:27.796Z,10.57
2019-02-22T18:08:04.120Z,11.50
2019-02-22T18:10:35.508Z,10.60
2019-02-22T18:13:08.294Z,10.80
2019-02-22T18:15:37.384Z,11.33
2019-02-22T18:18:09.208Z,11.10
2019-02-22T18:20:37.915Z,11.73
2019-02-22T18:23:06.750Z,11.60
2019-02-22T18:25:40.193Z,11.13
2019-02-22T18:28:08.934Z,12.00
2019-02-22T18:30:37.797Z,11.40
2019-02-22T18:33:06.998Z,11.60
2019-02-22T18:35:37.592Z,11.93
2019-02-22T18:38:08.005Z,11.70
2019-02-22T18:40:37.935Z,11.97
2019-02-22T18:43:09.264Z,12.10
2019-02-22T18:45:41.726Z,12.00
2019-02-22T18:48:12.175Z,11.93
2019-02-22T18:50:42.880Z,12.40
2019-02-22T18:53:22.336Z,13.20
2019-02-22T18:55:53.242Z,13.47
2019-02-22T18:58:22.178Z,12.73
2019-02-22T19:00:52.448Z,12.70
2019-02-22T19:03:23.995Z,12.77
2019-02-22T19:05:52.855Z,13.53
2019-02-22T19:08:31.775Z,13.03
2019-02-22T19:10:53.195Z,12.73
2019-02-22T19:13:21.843Z,14.27
2019-02-22T19:15:53.510Z,14.40
2019-02-22T19:18:26.141Z,13.50
2019-02-22T19:20:55.192Z,12.67
2019-02-22T19:23:26.497Z,13.90
2019-02-22T19:25:55.235Z,14.43
2019-02-22T19:28:24.759Z,14.73
2019-02-22T19:31:00.700Z,15.30
2019-02-22T19:33:33.032Z,15.73
2019-02-22T19:36:07.451Z,14.67
2019-02-22T19:38:39.775Z,14.80
2019-02-22T19:41:08.456Z,15.67
2019-02-22T19:43:45.751Z,15.20
2019-02-22T19:46:16.192Z,15.57
2019-02-22T19:48:57.133Z,16.63
2019-02-22T19:51:31.612Z,15.87
2019-02-22T19:54:04.687Z,17.43
2019-02-22T19:56:33.261Z,16.67
2019-02-22T19:59:06.593Z,18.27
2019-02-22T20:01:37.223Z,17.43
2019-02-22T20:04:06.150Z,16.50
2019-02-22T20:06:41.266Z,19.07
2019-02-22T20:09:14.603Z,18.87
2019-02-22T20:11:48.153Z,18.97
2019-02-22T20:14:25.642Z,18.70
2019-02-22T20:16:54.392Z,18.13
2019-02-22T20:19:25.861Z,19.33
2019-02-22T20:21:59.000Z,19.47
2019-02-22T20:24:28.606Z,19.63
2019-02-22T20:27:05.845Z,19.83
2019-02-22T20:29:34.709Z,19.60
2019-02-22T20:32:06.143Z,21.07
2019-02-22T20:34:34.973Z,20.60
2019-02-22T20:37:03.868Z,19.07
2019-02-22T20:39:36.583Z,18.73
2019-02-22T20:42:09.904Z,18.60
2019-02-22T20:44:40.688Z,19.30
2019-02-22T20:47:26.787Z,19.63
2019-02-22T20:49:57.361Z,18.43
2019-02-22T20:52:30.135Z,18.83
2019-02-22T20:54:59.628Z,19.13
2019-02-22T20:57:31.650Z,18.77
2019-02-22T21:00:00.555Z,18.13
2019-02-22T21:02:33.719Z,18.27
2019-02-22T21:05:02.344Z,17.83
2019-02-22T21:07:34.333Z,17.40
2019-02-22T21:10:06.694Z,18.30
2019-02-22T21:12:38.144Z,17.33
2019-02-22T21:15:10.827Z,18.33
2019-02-22T21:17:39.397Z,17.67
2019-02-22T21:20:15.783Z,16.70
2019-02-22T21:22:44.402Z,15.73
2019-02-22T21:25:13.316Z,16.03
2019-02-22T21:27:47.732Z,15.60
2019-02-22T21:30:20.528Z,15.40
2019-02-22T21:32:50.806Z,15.97
2019-02-22T21:35:28.123Z,14.10
2019-02-22T21:38:00.003Z,14.87
2019-02-22T21:40:33.472Z,15.23
2019-02-22T21:43:15.207Z,14.40
2019-02-22T21:45:43.866Z,13.63
2019-02-22T21:48:13.236Z,12.90
2019-02-22T21:50:45.258Z,13.07
2019-02-22T21:53:13.871Z,12.63
2019-02-22T21:55:42.687Z,12.17
2019-02-22T21:58:16.818Z,11.77
2019-02-22T22:00:46.885Z,11.67
2019-02-22T22:03:19.918Z,10.30
2019-02-22T22:05:50.819Z,10.97
2019-02-22T22:08:22.766Z,9.53
2019-02-22T22:10:52.259Z,10.27
2019-02-22T22:13:21.610Z,10.30
2019-02-22T22:15:50.594Z,10.13
2019-02-22T22:18:22.134Z,9.77
2019-02-22T22:20:51.840Z,10.10
2019-02-22T22:23:23.759Z,10.33
2019-02-22T22:25:52.436Z,10.77
2019-02-22T22:28:21.094Z,9.87
2019-02-22T22:30:49.742Z,10.67
2019-02-22T22:33:20.828Z,10.67
2019-02-22T22:35:49.770Z,10.80
2019-02-22T22:38:18.491Z,10.43
2019-02-22T22:40:47.176Z,11.07
2019-02-22T22:43:17.815Z,10.33
2019-02-22T22:45:49.264Z,10.23
2019-02-22T22:48:18.339Z,10.20
2019-02-22T22:51:12.155Z,10.37
2019-02-22T22:53:42.933Z,10.33
2019-02-22T22:56:11.646Z,10.47
2019-02-22T22:58:40.280Z,10.83
2019-02-22T23:01:11.856Z,10.20
2019-02-22T23:03:41.348Z,10.47
2019-02-22T23:06:12.537Z,10.50
2019-02-22T23:08:44.649Z,11.30
2019-02-22T23:11:13.631Z,9.87
2019-02-22T23:13:47.125Z,11.03
2019-02-22T23:16:15.506Z,10.13
2019-02-22T23:18:44.208Z,11.07
2019-02-22T23:21:12.921Z,11.33
2019-02-22T23:23:41.597Z,11.97
2019-02-22T23:26:10.441Z,12.70
2019-02-22T23:28:40.617Z,11.90
2019-02-22T23:31:09.733Z,11.97
2019-02-22T23:33:38.643Z,12.50
2019-02-22T23:36:07.349Z,12.73
2019-02-22T23:38:36.200Z,11.77
2019-02-22T23:41:06.303Z,11.73
2019-02-22T23:43:35.146Z,14.43
2019-02-22T23:46:05.005Z,13.30
2019-02-22T23:48:33.684Z,12.13
2019-02-22T23:51:05.063Z,13.10
2019-02-22T23:53:33.846Z,12.37
2019-02-22T23:56:02.567Z,12.90
2019-02-22T23:58:31.203Z,13.07
